Redwood City, CA

4:16 PM PDT on July 23, 2016 (GMT -0700)
Redwood Shores - Baltic Circle | | Change Station

Elev -10 ft 37.54 °N, 122.24 °W | Updated 8 minutes ago

Clear
Clear
86.8 °F
Feels Like 87 °F
N
1.0
Wind Variable Wind from ESE
Gusts 3.0 mph

Today
High -- | Low -- °F
--% Chance of Precip.
Yesterday
High -- | Low -- °F
Precip. -- in
Pressure 29.90 in
Visibility 10.0 miles
Clouds Clear
Heat Index 87 °F
Dew Point 62 °F
Humidity 44%
Rainfall 0.00 in
Snow Depth Not available.
6:06 AM 8:24 PM
Waning Gibbous, 82% visible
METAR KSQL 232250Z 33007KT 10SM SKC 31/13 A2990
Pressure 29.90 in
Visibility 10.0 miles
Clouds Clear
Heat Index 87 °F
Dew Point 62 °F
Humidity 44%
Rainfall 0.00 in
Snow Depth Not available.
6:06 AM 8:24 PM
Waning Gibbous, 82% visible
METAR KSQL 232250Z 33007KT 10SM SKC 31/13 A2990

10-Day Weather Forecast

Almanac

Astronomy

Jul. 23, 2016 Rise Set
Actual Time
Civil Twilight
Nautical Twilight
Astronomical Twilight
Moon
Length of Visible Light
Length of Day
Tomorrow will be .
, % of the Moon is Illuminated

Today's Extremes

State Highs State Lows

Community

WunderPhotos

Upload Photos

1,926,970 photos uploaded!

WunderBlog® & News

Nearby

Air Quality

  Air Quality AQ Index Pollutant
Not available.

Snow Depth

Station Depth Elevation

Earthquake Activity

City Distance Mag. Time & Date
Minimum magnitude displayed is 2.5.

Coastal Water Temperatures

Place Temperature

Stations

Nearby Weather Stations

Station Location Temp. Windchill Dew Point Humidity Wind Precip. Elev Updated Type
                   

Watches & Warnings

There are currently no watches in effect.